createdAt,value
2018-12-09T00:00:54.764Z,7.00
2018-12-09T00:04:19.637Z,8.50
2018-12-09T00:07:44.384Z,7.20
2018-12-09T00:11:09.227Z,7.40
2018-12-09T00:14:33.988Z,5.83
2018-12-09T00:17:58.685Z,6.23
2018-12-09T00:21:23.412Z,7.47
2018-12-09T00:24:48.101Z,6.73
2018-12-09T00:28:12.765Z,6.40
2018-12-09T00:31:37.436Z,6.40
2018-12-09T00:35:02.115Z,8.70
2018-12-09T00:38:26.835Z,7.90
2018-12-09T00:41:51.484Z,7.80
2018-12-09T00:45:16.180Z,7.63
2018-12-09T00:48:40.810Z,8.30
2018-12-09T00:52:05.555Z,7.53
2018-12-09T00:55:30.535Z,4.13
2018-12-09T00:58:55.280Z,2.93
2018-12-09T01:02:19.966Z,3.37
2018-12-09T01:05:45.186Z,5.00
2018-12-09T01:09:10.042Z,6.60
2018-12-09T01:12:34.775Z,7.67
2018-12-09T01:15:59.589Z,7.23
2018-12-09T01:19:24.245Z,8.90
2018-12-09T01:22:48.942Z,7.80
2018-12-09T01:26:13.746Z,6.27
2018-12-09T01:29:38.889Z,6.73
2018-12-09T01:33:03.562Z,7.27
2018-12-09T01:36:28.260Z,7.17
2018-12-09T01:39:52.977Z,7.27
2018-12-09T01:43:17.655Z,7.10
2018-12-09T01:46:42.457Z,5.90
2018-12-09T01:50:07.482Z,7.07
2018-12-09T01:54:35.212Z,6.10
2018-12-09T01:57:59.911Z,8.03
2018-12-09T02:01:24.617Z,7.80
2018-12-09T02:04:49.337Z,5.23
2018-12-09T02:08:14.032Z,6.77
2018-12-09T02:11:38.781Z,5.60
2018-12-09T02:15:03.503Z,5.47
2018-12-09T02:18:28.184Z,5.83
2018-12-09T02:21:52.893Z,4.83
2018-12-09T02:25:17.828Z,5.50
2018-12-09T02:28:43.007Z,5.07
2018-12-09T02:32:07.724Z,4.33
2018-12-09T02:39:15.943Z,4.40
2018-12-09T02:42:41.553Z,5.73
2018-12-09T02:46:06.288Z,4.43
2018-12-09T02:49:31.002Z,4.17
2018-12-09T02:52:55.721Z,3.70
2018-12-09T02:56:20.430Z,4.53
2018-12-09T02:59:45.457Z,4.50
2018-12-09T03:03:10.361Z,4.47
2018-12-09T03:06:35.065Z,4.93
2018-12-09T03:09:59.791Z,4.33
2018-12-09T03:13:24.456Z,4.97
2018-12-09T03:16:49.295Z,6.73
2018-12-09T03:20:14.160Z,5.50
2018-12-09T03:23:38.828Z,5.23
2018-12-09T03:27:03.525Z,5.57
2018-12-09T03:30:28.199Z,6.47
2018-12-09T03:33:52.866Z,6.47
2018-12-09T03:37:17.558Z,6.70
2018-12-09T03:40:42.288Z,6.17
2018-12-09T03:44:07.007Z,5.83
2018-12-09T03:47:31.783Z,5.67
2018-12-09T03:50:56.522Z,6.33
2018-12-09T03:54:21.155Z,4.63
2018-12-09T03:57:45.832Z,4.73
2018-12-09T04:01:10.910Z,6.03
2018-12-09T04:04:35.878Z,5.23
2018-12-09T04:08:00.538Z,4.97
2018-12-09T04:11:25.192Z,4.13
2018-12-09T04:14:49.851Z,3.93
2018-12-09T04:18:14.544Z,4.27
2018-12-09T04:21:39.238Z,4.57
2018-12-09T04:25:04.124Z,4.40
2018-12-09T04:28:28.807Z,3.50
2018-12-09T04:31:53.487Z,3.43
2018-12-09T04:35:18.197Z,3.73
2018-12-09T04:38:42.893Z,3.37
2018-12-09T04:42:07.530Z,3.37
2018-12-09T04:45:32.253Z,2.93
2018-12-09T04:48:57.007Z,2.50
2018-12-09T04:52:21.751Z,2.90
2018-12-09T04:55:46.412Z,3.67
2018-12-09T04:59:18.530Z,2.50
2018-12-09T05:02:43.784Z,2.50
2018-12-09T05:06:08.437Z,3.60
2018-12-09T05:09:33.121Z,3.30
2018-12-09T05:12:57.891Z,2.90
2018-12-09T05:16:22.586Z,4.00
2018-12-09T05:19:47.291Z,3.27
2018-12-09T05:23:13.011Z,4.57
2018-12-09T05:26:37.714Z,5.17
2018-12-09T05:30:02.437Z,3.77
2018-12-09T05:33:27.122Z,3.67
2018-12-09T05:36:52.437Z,3.73
2018-12-09T05:40:17.228Z,3.97
2018-12-09T05:43:41.950Z,5.07
2018-12-09T05:47:06.860Z,3.27
2018-12-09T05:50:31.606Z,3.40
2018-12-09T05:53:56.353Z,3.67
2018-12-09T05:57:21.143Z,4.17
2018-12-09T06:00:45.813Z,2.93
2018-12-09T06:04:10.518Z,3.30
2018-12-09T06:07:35.223Z,2.30
2018-12-09T06:11:00.356Z,2.63
2018-12-09T06:14:25.462Z,2.10
2018-12-09T06:17:50.221Z,2.70
2018-12-09T06:21:14.925Z,3.17
2018-12-09T06:24:39.614Z,3.70
2018-12-09T06:28:04.311Z,3.07
2018-12-09T06:34:59.620Z,3.50
2018-12-09T06:38:24.312Z,4.90
2018-12-09T06:41:49.036Z,3.63
2018-12-09T06:45:13.770Z,5.10
2018-12-09T06:48:38.659Z,5.93
2018-12-09T06:52:03.424Z,6.63
2018-12-09T06:55:28.214Z,6.03
2018-12-09T06:58:52.919Z,6.30
2018-12-09T07:02:17.655Z,5.87
2018-12-09T07:05:42.365Z,5.07
2018-12-09T07:09:08.249Z,6.60
2018-12-09T07:12:34.160Z,5.90
2018-12-09T07:15:58.987Z,6.33
2018-12-09T07:19:23.801Z,5.27
2018-12-09T07:22:48.552Z,5.60
2018-12-09T07:26:13.419Z,5.43
2018-12-09T07:29:38.448Z,5.77
2018-12-09T07:33:03.678Z,5.27
2018-12-09T07:36:29.074Z,4.60
2018-12-09T07:39:53.774Z,6.57
2018-12-09T07:43:18.610Z,5.97
2018-12-09T07:46:43.432Z,5.23
2018-12-09T07:50:08.545Z,6.63
2018-12-09T07:53:33.344Z,5.53
2018-12-09T07:56:58.395Z,5.33
2018-12-09T08:00:23.506Z,5.63
2018-12-09T08:03:48.779Z,5.30
2018-12-09T08:07:14.471Z,5.17
2018-12-09T08:10:42.243Z,5.53
2018-12-09T08:14:09.442Z,7.10
2018-12-09T08:17:34.161Z,5.80
2018-12-09T08:20:58.914Z,7.83
2018-12-09T08:24:23.663Z,6.60
2018-12-09T08:27:48.363Z,7.40
2018-12-09T08:31:13.608Z,7.63
2018-12-09T08:34:39.139Z,6.90
2018-12-09T08:38:10.079Z,6.77
2018-12-09T08:41:35.657Z,7.53
2018-12-09T08:45:01.159Z,6.90
2018-12-09T08:48:26.378Z,6.50
2018-12-09T08:51:51.623Z,6.97
2018-12-09T08:55:16.326Z,5.87
2018-12-09T08:58:40.979Z,6.67
2018-12-09T09:02:05.851Z,6.20
2018-12-09T09:05:30.621Z,5.47
2018-12-09T09:08:55.327Z,5.53
2018-12-09T09:12:20.096Z,6.17
2018-12-09T09:15:44.931Z,7.47
2018-12-09T09:19:09.633Z,8.07
2018-12-09T09:22:36.349Z,6.80
2018-12-09T09:26:01.190Z,7.57
2018-12-09T09:29:25.853Z,8.03
2018-12-09T09:32:50.520Z,7.97
2018-12-09T09:36:15.217Z,8.57
2018-12-09T09:39:40.018Z,7.37
2018-12-09T09:43:04.764Z,7.30
2018-12-09T09:46:29.439Z,6.80
2018-12-09T09:49:54.174Z,5.90
2018-12-09T09:53:18.819Z,6.30
2018-12-09T09:56:43.682Z,7.73
2018-12-09T10:00:09.965Z,7.70
2018-12-09T10:03:34.738Z,6.97
2018-12-09T10:06:59.427Z,6.83
2018-12-09T10:10:24.287Z,8.30
2018-12-09T10:13:48.946Z,8.17
2018-12-09T10:17:13.754Z,7.73
2018-12-09T10:20:38.453Z,7.43
2018-12-09T10:24:03.147Z,7.43
2018-12-09T10:27:27.864Z,8.57
2018-12-09T10:30:52.578Z,8.20
2018-12-09T10:34:17.339Z,8.17
2018-12-09T10:37:41.996Z,9.20
2018-12-09T10:41:07.039Z,10.20
2018-12-09T10:44:31.742Z,9.60
2018-12-09T10:47:56.548Z,7.97
2018-12-09T10:51:21.233Z,10.10
2018-12-09T10:54:46.088Z,9.47
2018-12-09T10:58:10.909Z,8.20
2018-12-09T11:05:28.550Z,7.33
2018-12-09T11:08:53.378Z,7.53
2018-12-09T11:12:18.252Z,5.00
2018-12-09T11:15:43.106Z,5.87
2018-12-09T11:19:07.776Z,2.00
2018-12-09T11:22:32.489Z,1.60
2018-12-09T11:25:57.835Z,2.00
2018-12-09T11:29:22.544Z,1.47
2018-12-09T11:32:47.273Z,1.87
2018-12-09T11:36:12.067Z,1.97
2018-12-09T11:39:36.822Z,2.00
2018-12-09T11:43:01.619Z,2.00
2018-12-09T11:46:26.397Z,1.73
2018-12-09T11:49:51.130Z,2.30
2018-12-09T11:53:15.810Z,2.07
2018-12-09T11:56:40.561Z,1.50
2018-12-09T12:00:09.928Z,1.60
2018-12-09T12:03:34.719Z,1.40
2018-12-09T12:06:59.472Z,3.07
2018-12-09T12:10:24.127Z,2.00
2018-12-09T12:13:48.872Z,1.63
2018-12-09T12:17:14.018Z,1.77
2018-12-09T12:20:38.729Z,2.37
2018-12-09T12:24:03.438Z,1.40
2018-12-09T12:27:28.189Z,1.83
2018-12-09T12:30:52.877Z,1.23
2018-12-09T12:34:17.549Z,1.77
2018-12-09T12:37:42.518Z,1.40
2018-12-09T12:41:07.265Z,1.62
2018-12-09T12:44:31.953Z,1.70
2018-12-09T12:47:56.593Z,1.77
2018-12-09T12:51:21.357Z,1.73
2018-12-09T12:54:46.032Z,2.03
2018-12-09T12:58:10.784Z,1.63
2018-12-09T13:01:35.468Z,1.90
2018-12-09T13:05:00.176Z,2.00
2018-12-09T13:08:25.530Z,2.20
2018-12-09T13:11:50.245Z,2.67
2018-12-09T13:15:15.157Z,1.80
2018-12-09T13:18:39.860Z,2.70
2018-12-09T13:22:04.508Z,2.87
2018-12-09T13:25:29.282Z,1.97
2018-12-09T13:28:53.928Z,2.40
2018-12-09T13:32:18.652Z,2.40
2018-12-09T13:35:43.268Z,2.57
2018-12-09T13:39:08.563Z,3.27
2018-12-09T13:42:33.223Z,2.10
2018-12-09T13:45:57.982Z,3.03
2018-12-09T13:49:22.911Z,2.90
2018-12-09T13:52:47.528Z,2.40
2018-12-09T13:56:12.398Z,2.85
2018-12-09T13:59:37.107Z,2.30
2018-12-09T14:03:01.800Z,3.23
2018-12-09T14:06:26.487Z,3.02
2018-12-09T14:09:51.245Z,2.80
2018-12-09T14:13:16.013Z,2.98
2018-12-09T14:16:40.757Z,3.20
2018-12-09T14:20:07.616Z,3.10
2018-12-09T14:23:33.221Z,3.07
2018-12-09T14:26:58.056Z,2.70
2018-12-09T14:30:22.919Z,2.70
2018-12-09T14:33:47.624Z,3.60
2018-12-09T14:37:12.330Z,2.93
2018-12-09T14:40:37.176Z,3.27
2018-12-09T14:44:01.895Z,3.00
2018-12-09T14:47:26.600Z,2.70
2018-12-09T14:50:51.315Z,2.27
2018-12-09T14:54:16.052Z,3.37
2018-12-09T14:57:40.741Z,2.90
2018-12-09T15:01:05.440Z,3.80
2018-12-09T15:04:30.106Z,3.03
2018-12-09T15:07:54.837Z,3.33
2018-12-09T15:11:19.532Z,4.43
2018-12-09T15:14:44.186Z,3.37
2018-12-09T15:18:08.929Z,3.40
2018-12-09T15:21:33.611Z,2.93
2018-12-09T15:24:58.336Z,3.53
2018-12-09T15:28:23.019Z,3.30
2018-12-09T15:31:47.741Z,2.80
2018-12-09T15:35:12.428Z,3.00
2018-12-09T15:38:37.130Z,3.50
2018-12-09T15:42:01.940Z,3.10
2018-12-09T15:45:26.661Z,2.67
2018-12-09T15:48:51.382Z,2.97
2018-12-09T15:52:16.124Z,2.93
2018-12-09T15:55:40.859Z,2.73
2018-12-09T15:59:05.589Z,2.77
2018-12-09T16:02:30.294Z,2.33
2018-12-09T16:05:55.011Z,3.13
2018-12-09T16:09:19.709Z,3.30
2018-12-09T16:12:45.061Z,2.60
2018-12-09T16:16:09.788Z,2.47
2018-12-09T16:19:34.529Z,2.50
2018-12-09T16:22:59.207Z,2.83
2018-12-09T16:26:23.970Z,3.07
2018-12-09T16:29:48.675Z,2.57
2018-12-09T16:33:13.365Z,2.77
2018-12-09T16:36:38.128Z,3.03
2018-12-09T16:40:02.840Z,3.23
2018-12-09T16:43:27.572Z,2.53
2018-12-09T16:46:52.267Z,2.83
2018-12-09T16:50:16.998Z,3.07
2018-12-09T16:53:41.651Z,4.07
2018-12-09T16:57:07.290Z,2.27
2018-12-09T17:00:31.989Z,2.83
2018-12-09T17:03:57.060Z,3.13
2018-12-09T17:07:21.863Z,2.40
2018-12-09T17:10:46.806Z,2.93
2018-12-09T17:14:11.531Z,4.37
2018-12-09T17:17:36.283Z,3.00
2018-12-09T17:21:00.984Z,3.20
2018-12-09T17:24:25.783Z,4.53
2018-12-09T17:27:50.483Z,3.57
2018-12-09T17:31:15.242Z,4.10
2018-12-09T17:34:39.971Z,3.27
2018-12-09T17:38:04.663Z,3.53
2018-12-09T17:41:29.321Z,3.73
2018-12-09T17:44:53.975Z,3.87
2018-12-09T17:48:18.767Z,3.70
2018-12-09T17:51:43.462Z,3.10
2018-12-09T17:55:08.213Z,2.70
2018-12-09T17:58:32.886Z,4.03
2018-12-09T18:01:57.559Z,4.37
2018-12-09T18:05:22.381Z,2.40
2018-12-09T18:08:47.104Z,2.73
2018-12-09T18:12:11.828Z,2.83
2018-12-09T18:15:36.630Z,2.93
2018-12-09T18:19:01.399Z,3.20
2018-12-09T18:22:26.110Z,3.23
2018-12-09T18:25:50.926Z,2.70
2018-12-09T18:29:15.714Z,2.80
2018-12-09T18:32:40.539Z,3.27
2018-12-09T18:36:05.574Z,4.00
2018-12-09T18:39:30.284Z,2.20
2018-12-09T18:42:55.189Z,2.27
2018-12-09T18:46:19.930Z,3.53
2018-12-09T18:49:44.885Z,3.07
2018-12-09T18:53:09.745Z,3.60
2018-12-09T18:56:34.554Z,3.30
2018-12-09T18:59:59.248Z,2.87
2018-12-09T19:03:24.137Z,3.00
2018-12-09T19:06:48.827Z,2.97
2018-12-09T19:10:13.475Z,3.03
2018-12-09T19:13:45.534Z,4.13
2018-12-09T19:17:16.850Z,2.97
2018-12-09T19:20:42.192Z,2.87
2018-12-09T19:24:07.002Z,2.90
2018-12-09T19:27:31.859Z,3.40
2018-12-09T19:30:56.637Z,5.43
2018-12-09T19:34:24.178Z,3.63
2018-12-09T19:37:48.884Z,3.63
2018-12-09T19:41:19.581Z,4.53
2018-12-09T19:44:44.437Z,3.47
2018-12-09T19:48:09.215Z,4.00
2018-12-09T19:51:35.681Z,4.33
2018-12-09T19:55:12.177Z,4.10
2018-12-09T19:58:39.735Z,3.93
2018-12-09T20:02:04.600Z,4.70
2018-12-09T20:05:29.277Z,4.33
2018-12-09T20:08:56.946Z,4.00
2018-12-09T20:12:27.158Z,4.77
2018-12-09T20:15:51.963Z,3.93
2018-12-09T20:19:16.758Z,4.03
2018-12-09T20:22:43.532Z,4.00
2018-12-09T20:26:08.288Z,4.63
2018-12-09T20:29:35.179Z,3.63
2018-12-09T20:32:59.914Z,3.43
2018-12-09T20:36:25.382Z,3.83
2018-12-09T20:39:50.137Z,4.00
2018-12-09T20:43:14.926Z,4.43
2018-12-09T20:46:40.565Z,5.30
2018-12-09T20:50:07.309Z,4.13
2018-12-09T20:53:32.034Z,5.63
2018-12-09T20:56:56.750Z,4.03
2018-12-09T21:00:21.744Z,3.90
2018-12-09T21:03:46.499Z,5.97
2018-12-09T21:07:11.206Z,3.40
2018-12-09T21:10:35.928Z,4.17
2018-12-09T21:14:00.679Z,3.97
2018-12-09T21:17:25.448Z,3.43
2018-12-09T21:20:50.270Z,4.07
2018-12-09T21:24:14.987Z,3.20
2018-12-09T21:27:39.729Z,4.30
2018-12-09T21:31:04.435Z,3.93
2018-12-09T21:34:29.525Z,3.93
2018-12-09T21:37:54.282Z,4.80
2018-12-09T21:41:19.264Z,3.90
2018-12-09T21:44:44.129Z,4.13
2018-12-09T21:48:09.049Z,3.70
2018-12-09T21:51:33.809Z,3.60
2018-12-09T21:54:58.495Z,3.47
2018-12-09T21:58:23.162Z,3.90
2018-12-09T22:01:47.905Z,3.30
2018-12-09T22:05:12.825Z,3.20
2018-12-09T22:08:37.557Z,3.83
2018-12-09T22:12:02.345Z,3.80
2018-12-09T22:15:27.042Z,3.67
2018-12-09T22:18:57.215Z,4.23
2018-12-09T22:22:21.992Z,3.73
2018-12-09T22:25:46.743Z,3.63
2018-12-09T22:29:11.605Z,2.87
2018-12-09T22:32:36.358Z,3.60
2018-12-09T22:36:01.066Z,3.40
2018-12-09T22:39:25.842Z,3.83
2018-12-09T22:42:50.551Z,4.43
2018-12-09T22:46:15.241Z,3.73
2018-12-09T22:49:39.993Z,3.80
2018-12-09T22:53:04.818Z,3.10
2018-12-09T22:56:29.531Z,3.67
2018-12-09T22:59:54.351Z,3.30
2018-12-09T23:03:19.066Z,3.73
2018-12-09T23:06:43.789Z,3.47
2018-12-09T23:10:08.654Z,4.40
2018-12-09T23:13:33.373Z,4.07
2018-12-09T23:16:58.109Z,4.63
2018-12-09T23:20:22.875Z,5.17
2018-12-09T23:23:47.598Z,5.20
2018-12-09T23:27:12.501Z,3.13
2018-12-09T23:30:37.262Z,3.67
2018-12-09T23:34:01.958Z,3.47
2018-12-09T23:37:26.852Z,2.63
2018-12-09T23:40:51.606Z,3.80
2018-12-09T23:44:16.420Z,3.33
2018-12-09T23:47:41.157Z,3.90
2018-12-09T23:51:05.885Z,3.23
2018-12-09T23:54:30.654Z,3.10
2018-12-09T23:57:55.458Z,3.47
